sensor_id;sensor_type;location;lat;lon;timestamp;P1;durP1;ratioP1;P2;durP2;ratioP2
29958;SDS011;16815;51.100;6.516;2023-02-04T00:01:03;16.50;;;4.60;;
29958;SDS011;16815;51.100;6.516;2023-02-04T00:03:29;12.70;;;4.07;;
29958;SDS011;16815;51.100;6.516;2023-02-04T00:05:55;24.10;;;4.73;;
29958;SDS011;16815;51.100;6.516;2023-02-04T00:08:21;14.47;;;3.87;;
29958;SDS011;16815;51.100;6.516;2023-02-04T00:10:47;19.83;;;4.70;;
29958;SDS011;16815;51.100;6.516;2023-02-04T00:13:13;19.93;;;4.57;;
29958;SDS011;16815;51.100;6.516;2023-02-04T00:15:39;17.00;;;4.17;;
29958;SDS011;16815;51.100;6.516;2023-02-04T00:18:05;18.67;;;4.90;;
29958;SDS011;16815;51.100;6.516;2023-02-04T00:20:31;16.40;;;4.27;;
29958;SDS011;16815;51.100;6.516;2023-02-04T00:22:57;15.27;;;4.77;;
29958;SDS011;16815;51.100;6.516;2023-02-04T00:25:23;15.83;;;5.03;;
29958;SDS011;16815;51.100;6.516;2023-02-04T00:27:49;17.10;;;4.60;;
29958;SDS011;16815;51.100;6.516;2023-02-04T00:30:15;17.00;;;4.03;;
29958;SDS011;16815;51.100;6.516;2023-02-04T00:32:41;13.13;;;4.60;;
29958;SDS011;16815;51.100;6.516;2023-02-04T00:35:07;16.27;;;4.37;;
29958;SDS011;16815;51.100;6.516;2023-02-04T00:37:33;19.60;;;4.97;;
29958;SDS011;16815;51.100;6.516;2023-02-04T00:39:59;17.13;;;4.47;;
29958;SDS011;16815;51.100;6.516;2023-02-04T00:42:25;25.37;;;5.83;;
29958;SDS011;16815;51.100;6.516;2023-02-04T00:44:51;16.10;;;3.73;;
29958;SDS011;16815;51.100;6.516;2023-02-04T00:47:17;15.87;;;4.20;;
29958;SDS011;16815;51.100;6.516;2023-02-04T00:49:43;18.20;;;4.53;;
29958;SDS011;16815;51.100;6.516;2023-02-04T00:52:09;15.27;;;4.23;;
29958;SDS011;16815;51.100;6.516;2023-02-04T00:54:35;19.77;;;5.23;;
29958;SDS011;16815;51.100;6.516;2023-02-04T00:57:01;14.17;;;4.07;;
29958;SDS011;16815;51.100;6.516;2023-02-04T00:59:27;16.87;;;3.77;;
29958;SDS011;16815;51.100;6.516;2023-02-04T01:01:53;16.50;;;4.30;;
29958;SDS011;16815;51.100;6.516;2023-02-04T01:04:19;16.27;;;3.80;;
29958;SDS011;16815;51.100;6.516;2023-02-04T01:06:45;14.80;;;3.97;;
29958;SDS011;16815;51.100;6.516;2023-02-04T01:09:11;13.33;;;4.43;;
29958;SDS011;16815;51.100;6.516;2023-02-04T01:11:37;15.07;;;3.73;;
29958;SDS011;16815;51.100;6.516;2023-02-04T01:14:03;19.00;;;4.33;;
29958;SDS011;16815;51.100;6.516;2023-02-04T01:16:29;15.67;;;3.97;;
29958;SDS011;16815;51.100;6.516;2023-02-04T01:18:55;12.67;;;3.97;;
29958;SDS011;16815;51.100;6.516;2023-02-04T01:21:22;14.40;;;4.50;;
29958;SDS011;16815;51.100;6.516;2023-02-04T01:23:48;14.20;;;3.80;;
29958;SDS011;16815;51.100;6.516;2023-02-04T01:26:15;17.77;;;4.37;;
29958;SDS011;16815;51.100;6.516;2023-02-04T01:28:41;16.93;;;4.40;;
29958;SDS011;16815;51.100;6.516;2023-02-04T01:31:07;19.77;;;4.10;;
29958;SDS011;16815;51.100;6.516;2023-02-04T01:33:33;12.70;;;3.97;;
29958;SDS011;16815;51.100;6.516;2023-02-04T01:35:59;16.70;;;4.87;;
29958;SDS011;16815;51.100;6.516;2023-02-04T01:38:25;12.83;;;3.77;;
29958;SDS011;16815;51.100;6.516;2023-02-04T01:40:51;17.13;;;3.80;;
29958;SDS011;16815;51.100;6.516;2023-02-04T01:43:17;14.17;;;3.80;;
29958;SDS011;16815;51.100;6.516;2023-02-04T01:45:46;18.23;;;4.37;;
29958;SDS011;16815;51.100;6.516;2023-02-04T01:48:12;17.17;;;4.43;;
29958;SDS011;16815;51.100;6.516;2023-02-04T01:50:44;18.73;;;4.50;;
29958;SDS011;16815;51.100;6.516;2023-02-04T01:53:10;18.57;;;5.07;;
29958;SDS011;16815;51.100;6.516;2023-02-04T01:55:36;14.37;;;3.77;;
29958;SDS011;16815;51.100;6.516;2023-02-04T01:58:02;15.97;;;3.67;;
29958;SDS011;16815;51.100;6.516;2023-02-04T02:00:29;21.23;;;4.07;;
29958;SDS011;16815;51.100;6.516;2023-02-04T02:02:55;14.90;;;4.07;;
29958;SDS011;16815;51.100;6.516;2023-02-04T02:05:23;13.53;;;4.20;;
29958;SDS011;16815;51.100;6.516;2023-02-04T02:07:50;11.23;;;3.80;;
29958;SDS011;16815;51.100;6.516;2023-02-04T02:10:17;13.77;;;4.27;;
29958;SDS011;16815;51.100;6.516;2023-02-04T02:12:44;20.40;;;4.37;;
29958;SDS011;16815;51.100;6.516;2023-02-04T02:15:10;14.20;;;3.50;;
29958;SDS011;16815;51.100;6.516;2023-02-04T02:17:37;12.63;;;3.53;;
29958;SDS011;16815;51.100;6.516;2023-02-04T02:20:05;11.87;;;3.67;;
29958;SDS011;16815;51.100;6.516;2023-02-04T02:22:32;14.53;;;3.57;;
29958;SDS011;16815;51.100;6.516;2023-02-04T02:25:00;17.30;;;3.53;;
29958;SDS011;16815;51.100;6.516;2023-02-04T02:27:26;13.93;;;3.60;;
29958;SDS011;16815;51.100;6.516;2023-02-04T02:29:52;18.07;;;4.20;;
29958;SDS011;16815;51.100;6.516;2023-02-04T02:32:18;20.27;;;4.50;;
29958;SDS011;16815;51.100;6.516;2023-02-04T02:34:44;15.63;;;3.33;;
29958;SDS011;16815;51.100;6.516;2023-02-04T02:37:11;13.80;;;3.63;;
29958;SDS011;16815;51.100;6.516;2023-02-04T02:39:37;13.73;;;3.70;;
29958;SDS011;16815;51.100;6.516;2023-02-04T02:42:04;10.80;;;3.43;;
29958;SDS011;16815;51.100;6.516;2023-02-04T02:44:30;13.80;;;3.80;;
29958;SDS011;16815;51.100;6.516;2023-02-04T02:46:56;17.13;;;4.83;;
29958;SDS011;16815;51.100;6.516;2023-02-04T02:49:22;17.27;;;4.33;;
29958;SDS011;16815;51.100;6.516;2023-02-04T02:51:48;17.60;;;3.87;;
29958;SDS011;16815;51.100;6.516;2023-02-04T02:54:22;13.33;;;3.40;;
29958;SDS011;16815;51.100;6.516;2023-02-04T02:56:48;15.07;;;3.90;;
29958;SDS011;16815;51.100;6.516;2023-02-04T02:59:15;17.17;;;4.13;;
29958;SDS011;16815;51.100;6.516;2023-02-04T03:01:41;15.77;;;3.90;;
29958;SDS011;16815;51.100;6.516;2023-02-04T03:04:08;14.27;;;3.30;;
29958;SDS011;16815;51.100;6.516;2023-02-04T03:06:34;13.57;;;4.23;;
29958;SDS011;16815;51.100;6.516;2023-02-04T03:09:00;12.70;;;3.10;;
29958;SDS011;16815;51.100;6.516;2023-02-04T03:11:26;14.30;;;3.57;;
29958;SDS011;16815;51.100;6.516;2023-02-04T03:13:54;15.50;;;4.03;;
29958;SDS011;16815;51.100;6.516;2023-02-04T03:16:20;12.73;;;3.80;;
29958;SDS011;16815;51.100;6.516;2023-02-04T03:18:46;13.80;;;3.67;;
29958;SDS011;16815;51.100;6.516;2023-02-04T03:21:12;13.20;;;3.37;;
29958;SDS011;16815;51.100;6.516;2023-02-04T03:23:38;13.17;;;4.23;;
29958;SDS011;16815;51.100;6.516;2023-02-04T03:26:04;13.57;;;3.73;;
29958;SDS011;16815;51.100;6.516;2023-02-04T03:28:31;11.87;;;3.70;;
29958;SDS011;16815;51.100;6.516;2023-02-04T03:30:57;14.60;;;4.20;;
29958;SDS011;16815;51.100;6.516;2023-02-04T03:33:25;10.87;;;3.73;;
29958;SDS011;16815;51.100;6.516;2023-02-04T03:35:53;13.10;;;4.10;;
29958;SDS011;16815;51.100;6.516;2023-02-04T03:38:19;14.00;;;3.47;;
29958;SDS011;16815;51.100;6.516;2023-02-04T03:40:45;12.57;;;3.07;;
29958;SDS011;16815;51.100;6.516;2023-02-04T03:43:11;15.20;;;3.20;;
29958;SDS011;16815;51.100;6.516;2023-02-04T03:45:37;13.50;;;3.50;;
29958;SDS011;16815;51.100;6.516;2023-02-04T03:48:03;12.83;;;3.70;;
29958;SDS011;16815;51.100;6.516;2023-02-04T03:50:29;11.00;;;3.13;;
29958;SDS011;16815;51.100;6.516;2023-02-04T03:52:55;13.90;;;4.53;;
29958;SDS011;16815;51.100;6.516;2023-02-04T03:55:21;14.07;;;3.90;;
29958;SDS011;16815;51.100;6.516;2023-02-04T03:57:47;11.37;;;3.53;;
29958;SDS011;16815;51.100;6.516;2023-02-04T04:00:13;18.07;;;4.73;;
29958;SDS011;16815;51.100;6.516;2023-02-04T04:02:39;15.83;;;4.50;;
29958;SDS011;16815;51.100;6.516;2023-02-04T04:05:05;14.83;;;4.43;;
29958;SDS011;16815;51.100;6.516;2023-02-04T04:07:32;12.63;;;3.93;;
29958;SDS011;16815;51.100;6.516;2023-02-04T04:09:58;17.90;;;4.13;;
29958;SDS011;16815;51.100;6.516;2023-02-04T04:12:24;12.93;;;3.83;;
29958;SDS011;16815;51.100;6.516;2023-02-04T04:14:50;17.30;;;4.10;;
29958;SDS011;16815;51.100;6.516;2023-02-04T04:17:16;12.93;;;3.63;;
29958;SDS011;16815;51.100;6.516;2023-02-04T04:19:41;16.00;;;4.37;;
29958;SDS011;16815;51.100;6.516;2023-02-04T04:22:08;20.60;;;4.57;;
29958;SDS011;16815;51.100;6.516;2023-02-04T04:24:34;13.30;;;3.70;;
29958;SDS011;16815;51.100;6.516;2023-02-04T04:27:00;12.90;;;4.43;;
29958;SDS011;16815;51.100;6.516;2023-02-04T04:29:26;16.87;;;4.37;;
29958;SDS011;16815;51.100;6.516;2023-02-04T04:31:52;14.53;;;3.80;;
29958;SDS011;16815;51.100;6.516;2023-02-04T04:34:18;15.73;;;3.70;;
29958;SDS011;16815;51.100;6.516;2023-02-04T04:36:44;18.50;;;4.17;;
29958;SDS011;16815;51.100;6.516;2023-02-04T04:39:10;13.17;;;3.83;;
29958;SDS011;16815;51.100;6.516;2023-02-04T04:41:36;14.93;;;4.57;;
29958;SDS011;16815;51.100;6.516;2023-02-04T04:44:02;13.23;;;3.70;;
29958;SDS011;16815;51.100;6.516;2023-02-04T04:46:28;13.60;;;3.77;;
29958;SDS011;16815;51.100;6.516;2023-02-04T04:48:54;12.93;;;3.77;;
29958;SDS011;16815;51.100;6.516;2023-02-04T04:51:20;19.07;;;4.37;;
29958;SDS011;16815;51.100;6.516;2023-02-04T04:53:46;16.57;;;3.80;;
29958;SDS011;16815;51.100;6.516;2023-02-04T04:56:12;18.77;;;3.73;;
29958;SDS011;16815;51.100;6.516;2023-02-04T04:58:38;17.23;;;4.27;;
29958;SDS011;16815;51.100;6.516;2023-02-04T05:01:03;19.43;;;4.67;;
29958;SDS011;16815;51.100;6.516;2023-02-04T05:03:29;13.00;;;3.73;;
29958;SDS011;16815;51.100;6.516;2023-02-04T05:05:55;19.33;;;4.93;;
29958;SDS011;16815;51.100;6.516;2023-02-04T05:08:21;17.63;;;5.00;;
29958;SDS011;16815;51.100;6.516;2023-02-04T05:10:47;20.50;;;4.43;;
29958;SDS011;16815;51.100;6.516;2023-02-04T05:13:13;14.07;;;4.20;;
29958;SDS011;16815;51.100;6.516;2023-02-04T05:15:39;18.30;;;4.73;;
29958;SDS011;16815;51.100;6.516;2023-02-04T05:18:06;15.77;;;4.50;;
29958;SDS011;16815;51.100;6.516;2023-02-04T05:20:32;17.13;;;5.23;;
29958;SDS011;16815;51.100;6.516;2023-02-04T05:22:58;16.43;;;4.33;;
29958;SDS011;16815;51.100;6.516;2023-02-04T05:25:27;14.97;;;4.47;;
29958;SDS011;16815;51.100;6.516;2023-02-04T05:27:53;12.20;;;4.00;;
29958;SDS011;16815;51.100;6.516;2023-02-04T05:30:20;17.50;;;4.30;;
29958;SDS011;16815;51.100;6.516;2023-02-04T05:32:46;15.13;;;4.90;;
29958;SDS011;16815;51.100;6.516;2023-02-04T05:35:12;16.20;;;4.57;;
29958;SDS011;16815;51.100;6.516;2023-02-04T05:37:38;19.47;;;4.00;;
29958;SDS011;16815;51.100;6.516;2023-02-04T05:40:04;12.57;;;4.43;;
29958;SDS011;16815;51.100;6.516;2023-02-04T05:42:30;15.47;;;4.13;;
29958;SDS011;16815;51.100;6.516;2023-02-04T05:44:56;15.63;;;4.40;;
29958;SDS011;16815;51.100;6.516;2023-02-04T05:47:22;19.93;;;4.70;;
29958;SDS011;16815;51.100;6.516;2023-02-04T05:49:48;14.73;;;4.50;;
29958;SDS011;16815;51.100;6.516;2023-02-04T05:52:14;14.37;;;4.23;;
29958;SDS011;16815;51.100;6.516;2023-02-04T05:54:40;15.53;;;4.27;;
29958;SDS011;16815;51.100;6.516;2023-02-04T05:57:06;12.80;;;4.03;;
29958;SDS011;16815;51.100;6.516;2023-02-04T05:59:32;17.83;;;4.57;;
29958;SDS011;16815;51.100;6.516;2023-02-04T06:01:58;17.20;;;5.00;;
29958;SDS011;16815;51.100;6.516;2023-02-04T06:04:24;15.77;;;3.93;;
29958;SDS011;16815;51.100;6.516;2023-02-04T06:06:50;18.17;;;5.20;;
29958;SDS011;16815;51.100;6.516;2023-02-04T06:09:16;17.33;;;5.17;;
29958;SDS011;16815;51.100;6.516;2023-02-04T06:11:42;15.67;;;4.80;;
29958;SDS011;16815;51.100;6.516;2023-02-04T06:14:08;20.00;;;4.27;;
29958;SDS011;16815;51.100;6.516;2023-02-04T06:16:35;15.40;;;4.27;;
29958;SDS011;16815;51.100;6.516;2023-02-04T06:19:01;15.67;;;4.10;;
29958;SDS011;16815;51.100;6.516;2023-02-04T06:21:27;20.63;;;5.03;;
29958;SDS011;16815;51.100;6.516;2023-02-04T06:23:53;19.23;;;4.33;;
29958;SDS011;16815;51.100;6.516;2023-02-04T06:26:18;13.73;;;4.80;;
29958;SDS011;16815;51.100;6.516;2023-02-04T06:28:44;15.80;;;4.73;;
29958;SDS011;16815;51.100;6.516;2023-02-04T06:31:10;16.43;;;4.90;;
29958;SDS011;16815;51.100;6.516;2023-02-04T06:33:36;16.93;;;4.70;;
29958;SDS011;16815;51.100;6.516;2023-02-04T06:36:03;15.37;;;4.90;;
29958;SDS011;16815;51.100;6.516;2023-02-04T06:38:29;14.30;;;4.77;;
29958;SDS011;16815;51.100;6.516;2023-02-04T06:40:55;15.93;;;5.30;;
29958;SDS011;16815;51.100;6.516;2023-02-04T06:43:21;16.00;;;5.17;;
29958;SDS011;16815;51.100;6.516;2023-02-04T06:45:50;17.33;;;4.40;;
29958;SDS011;16815;51.100;6.516;2023-02-04T06:48:16;15.97;;;4.67;;
29958;SDS011;16815;51.100;6.516;2023-02-04T06:50:42;15.97;;;4.53;;
29958;SDS011;16815;51.100;6.516;2023-02-04T06:53:08;17.03;;;4.50;;
29958;SDS011;16815;51.100;6.516;2023-02-04T06:55:34;18.30;;;5.40;;
29958;SDS011;16815;51.100;6.516;2023-02-04T06:58:00;12.67;;;4.33;;
29958;SDS011;16815;51.100;6.516;2023-02-04T07:00:26;20.33;;;4.63;;
29958;SDS011;16815;51.100;6.516;2023-02-04T07:02:52;14.67;;;5.40;;
29958;SDS011;16815;51.100;6.516;2023-02-04T07:05:18;17.90;;;4.97;;
29958;SDS011;16815;51.100;6.516;2023-02-04T07:07:44;16.00;;;4.90;;
29958;SDS011;16815;51.100;6.516;2023-02-04T07:10:10;17.60;;;5.07;;
29958;SDS011;16815;51.100;6.516;2023-02-04T07:12:37;16.30;;;5.37;;
29958;SDS011;16815;51.100;6.516;2023-02-04T07:15:03;17.27;;;5.10;;
29958;SDS011;16815;51.100;6.516;2023-02-04T07:17:29;22.13;;;5.10;;
29958;SDS011;16815;51.100;6.516;2023-02-04T07:19:55;22.67;;;5.27;;
29958;SDS011;16815;51.100;6.516;2023-02-04T07:22:21;20.73;;;5.43;;
29958;SDS011;16815;51.100;6.516;2023-02-04T07:24:46;18.83;;;5.60;;
29958;SDS011;16815;51.100;6.516;2023-02-04T07:27:12;15.03;;;5.40;;
29958;SDS011;16815;51.100;6.516;2023-02-04T07:29:38;16.33;;;5.43;;
29958;SDS011;16815;51.100;6.516;2023-02-04T07:32:04;17.40;;;5.37;;
29958;SDS011;16815;51.100;6.516;2023-02-04T07:34:30;18.07;;;6.07;;
29958;SDS011;16815;51.100;6.516;2023-02-04T07:36:56;19.77;;;5.63;;
29958;SDS011;16815;51.100;6.516;2023-02-04T07:39:22;15.00;;;5.57;;
29958;SDS011;16815;51.100;6.516;2023-02-04T07:41:48;15.40;;;5.60;;
29958;SDS011;16815;51.100;6.516;2023-02-04T07:44:14;15.37;;;5.43;;
29958;SDS011;16815;51.100;6.516;2023-02-04T07:46:40;21.27;;;5.50;;
29958;SDS011;16815;51.100;6.516;2023-02-04T07:49:06;16.50;;;5.70;;
29958;SDS011;16815;51.100;6.516;2023-02-04T07:51:32;19.23;;;5.80;;
29958;SDS011;16815;51.100;6.516;2023-02-04T07:53:58;18.67;;;6.00;;
29958;SDS011;16815;51.100;6.516;2023-02-04T07:56:24;23.53;;;6.23;;
29958;SDS011;16815;51.100;6.516;2023-02-04T07:58:50;15.33;;;5.47;;
29958;SDS011;16815;51.100;6.516;2023-02-04T08:01:16;18.73;;;6.07;;
29958;SDS011;16815;51.100;6.516;2023-02-04T08:03:42;16.67;;;5.40;;
29958;SDS011;16815;51.100;6.516;2023-02-04T08:06:09;14.63;;;4.93;;
29958;SDS011;16815;51.100;6.516;2023-02-04T08:08:34;13.13;;;5.30;;
29958;SDS011;16815;51.100;6.516;2023-02-04T08:11:00;15.00;;;5.60;;
29958;SDS011;16815;51.100;6.516;2023-02-04T08:13:26;21.77;;;6.27;;
29958;SDS011;16815;51.100;6.516;2023-02-04T08:15:52;23.70;;;6.20;;
29958;SDS011;16815;51.100;6.516;2023-02-04T08:18:18;20.23;;;6.77;;
29958;SDS011;16815;51.100;6.516;2023-02-04T08:20:44;17.80;;;6.73;;
29958;SDS011;16815;51.100;6.516;2023-02-04T08:23:10;16.27;;;6.50;;
29958;SDS011;16815;51.100;6.516;2023-02-04T08:25:36;21.33;;;6.33;;
29958;SDS011;16815;51.100;6.516;2023-02-04T08:28:02;18.67;;;6.60;;
29958;SDS011;16815;51.100;6.516;2023-02-04T08:30:28;25.40;;;8.87;;
29958;SDS011;16815;51.100;6.516;2023-02-04T08:32:54;20.13;;;7.40;;
29958;SDS011;16815;51.100;6.516;2023-02-04T08:35:20;23.47;;;8.70;;
29958;SDS011;16815;51.100;6.516;2023-02-04T08:37:46;18.93;;;7.73;;
29958;SDS011;16815;51.100;6.516;2023-02-04T08:40:12;21.73;;;8.00;;
29958;SDS011;16815;51.100;6.516;2023-02-04T08:42:38;22.17;;;8.70;;
29958;SDS011;16815;51.100;6.516;2023-02-04T08:45:04;24.63;;;8.50;;
29958;SDS011;16815;51.100;6.516;2023-02-04T08:47:30;30.40;;;9.63;;
29958;SDS011;16815;51.100;6.516;2023-02-04T08:49:56;25.60;;;10.40;;
29958;SDS011;16815;51.100;6.516;2023-02-04T08:52:22;24.03;;;9.07;;
29958;SDS011;16815;51.100;6.516;2023-02-04T08:54:48;22.87;;;9.10;;
29958;SDS011;16815;51.100;6.516;2023-02-04T08:57:14;26.17;;;11.20;;
29958;SDS011;16815;51.100;6.516;2023-02-04T08:59:40;21.13;;;9.30;;
29958;SDS011;16815;51.100;6.516;2023-02-04T09:02:06;30.20;;;9.50;;
29958;SDS011;16815;51.100;6.516;2023-02-04T09:04:32;24.83;;;9.20;;
29958;SDS011;16815;51.100;6.516;2023-02-04T09:06:58;21.57;;;9.07;;
29958;SDS011;16815;51.100;6.516;2023-02-04T09:09:23;27.97;;;10.30;;
29958;SDS011;16815;51.100;6.516;2023-02-04T09:11:49;21.13;;;9.67;;
29958;SDS011;16815;51.100;6.516;2023-02-04T09:14:15;23.33;;;10.20;;
29958;SDS011;16815;51.100;6.516;2023-02-04T09:16:41;26.53;;;11.93;;
29958;SDS011;16815;51.100;6.516;2023-02-04T09:19:07;21.40;;;10.33;;
29958;SDS011;16815;51.100;6.516;2023-02-04T09:21:36;26.47;;;11.90;;
29958;SDS011;16815;51.100;6.516;2023-02-04T09:24:02;31.87;;;14.10;;
29958;SDS011;16815;51.100;6.516;2023-02-04T09:26:28;30.57;;;10.87;;
29958;SDS011;16815;51.100;6.516;2023-02-04T09:28:54;28.20;;;11.93;;
29958;SDS011;16815;51.100;6.516;2023-02-04T09:31:20;27.73;;;11.23;;
29958;SDS011;16815;51.100;6.516;2023-02-04T09:33:46;21.77;;;9.90;;
29958;SDS011;16815;51.100;6.516;2023-02-04T09:36:12;24.87;;;10.40;;
29958;SDS011;16815;51.100;6.516;2023-02-04T09:38:38;29.27;;;10.47;;
29958;SDS011;16815;51.100;6.516;2023-02-04T09:41:06;27.73;;;10.13;;
29958;SDS011;16815;51.100;6.516;2023-02-04T09:43:39;22.23;;;10.23;;
29958;SDS011;16815;51.100;6.516;2023-02-04T09:46:08;28.53;;;9.80;;
29958;SDS011;16815;51.100;6.516;2023-02-04T09:48:39;25.17;;;10.97;;
29958;SDS011;16815;51.100;6.516;2023-02-04T09:51:06;24.17;;;9.73;;
29958;SDS011;16815;51.100;6.516;2023-02-04T09:53:32;24.60;;;10.53;;
29958;SDS011;16815;51.100;6.516;2023-02-04T09:55:59;27.70;;;10.30;;
29958;SDS011;16815;51.100;6.516;2023-02-04T09:58:25;27.80;;;9.73;;
29958;SDS011;16815;51.100;6.516;2023-02-04T10:01:13;25.50;;;10.27;;
29958;SDS011;16815;51.100;6.516;2023-02-04T10:03:39;24.83;;;9.10;;
29958;SDS011;16815;51.100;6.516;2023-02-04T10:06:15;27.33;;;10.00;;
29958;SDS011;16815;51.100;6.516;2023-02-04T10:08:42;25.00;;;9.97;;
29958;SDS011;16815;51.100;6.516;2023-02-04T10:11:08;23.17;;;9.00;;
29958;SDS011;16815;51.100;6.516;2023-02-04T10:13:38;27.57;;;9.70;;
29958;SDS011;16815;51.100;6.516;2023-02-04T10:16:22;24.00;;;9.00;;
29958;SDS011;16815;51.100;6.516;2023-02-04T10:18:53;22.37;;;7.67;;
29958;SDS011;16815;51.100;6.516;2023-02-04T10:21:20;24.33;;;7.67;;
29958;SDS011;16815;51.100;6.516;2023-02-04T10:23:47;28.30;;;9.00;;
29958;SDS011;16815;51.100;6.516;2023-02-04T10:26:15;35.70;;;9.03;;
29958;SDS011;16815;51.100;6.516;2023-02-04T10:28:41;22.87;;;8.13;;
29958;SDS011;16815;51.100;6.516;2023-02-04T10:34:01;22.97;;;7.67;;
29958;SDS011;16815;51.100;6.516;2023-02-04T10:36:27;23.57;;;7.70;;
29958;SDS011;16815;51.100;6.516;2023-02-04T10:39:02;24.17;;;8.03;;
29958;SDS011;16815;51.100;6.516;2023-02-04T10:41:28;27.27;;;8.63;;
29958;SDS011;16815;51.100;6.516;2023-02-04T10:44:04;25.47;;;7.63;;
29958;SDS011;16815;51.100;6.516;2023-02-04T10:46:30;28.13;;;8.50;;
29958;SDS011;16815;51.100;6.516;2023-02-04T10:48:57;28.17;;;8.23;;
29958;SDS011;16815;51.100;6.516;2023-02-04T10:51:23;26.50;;;8.23;;
29958;SDS011;16815;51.100;6.516;2023-02-04T10:53:49;24.20;;;7.60;;
29958;SDS011;16815;51.100;6.516;2023-02-04T10:56:34;22.50;;;8.30;;
29958;SDS011;16815;51.100;6.516;2023-02-04T10:59:00;23.77;;;7.30;;
29958;SDS011;16815;51.100;6.516;2023-02-04T11:01:25;23.80;;;7.83;;
29958;SDS011;16815;51.100;6.516;2023-02-04T11:03:53;30.17;;;7.53;;
29958;SDS011;16815;51.100;6.516;2023-02-04T11:06:19;26.03;;;7.00;;
29958;SDS011;16815;51.100;6.516;2023-02-04T11:08:46;22.73;;;6.93;;
29958;SDS011;16815;51.100;6.516;2023-02-04T11:11:16;21.70;;;6.13;;
29958;SDS011;16815;51.100;6.516;2023-02-04T11:13:43;27.30;;;7.40;;
29958;SDS011;16815;51.100;6.516;2023-02-04T11:18:52;29.03;;;8.43;;
29958;SDS011;16815;51.100;6.516;2023-02-04T11:21:28;24.17;;;7.23;;
29958;SDS011;16815;51.100;6.516;2023-02-04T11:26:35;20.57;;;7.17;;
29958;SDS011;16815;51.100;6.516;2023-02-04T11:36:34;22.43;;;6.67;;
29958;SDS011;16815;51.100;6.516;2023-02-04T11:39:14;22.10;;;7.43;;
29958;SDS011;16815;51.100;6.516;2023-02-04T11:41:42;25.83;;;6.80;;
29958;SDS011;16815;51.100;6.516;2023-02-04T11:44:09;23.03;;;7.37;;
29958;SDS011;16815;51.100;6.516;2023-02-04T11:46:35;17.20;;;6.07;;
29958;SDS011;16815;51.100;6.516;2023-02-04T11:49:01;21.93;;;6.80;;
29958;SDS011;16815;51.100;6.516;2023-02-04T11:51:29;21.07;;;6.43;;
29958;SDS011;16815;51.100;6.516;2023-02-04T11:53:55;26.03;;;7.13;;
29958;SDS011;16815;51.100;6.516;2023-02-04T11:56:21;20.97;;;6.00;;
29958;SDS011;16815;51.100;6.516;2023-02-04T11:58:48;22.73;;;5.97;;
29958;SDS011;16815;51.100;6.516;2023-02-04T12:03:47;34.17;;;7.63;;
29958;SDS011;16815;51.100;6.516;2023-02-04T12:06:23;22.17;;;5.93;;
29958;SDS011;16815;51.100;6.516;2023-02-04T12:08:49;24.27;;;7.90;;
29958;SDS011;16815;51.100;6.516;2023-02-04T12:11:25;23.53;;;7.43;;
29958;SDS011;16815;51.100;6.516;2023-02-04T12:13:54;21.83;;;5.90;;
29958;SDS011;16815;51.100;6.516;2023-02-04T12:16:21;21.93;;;6.00;;
29958;SDS011;16815;51.100;6.516;2023-02-04T12:18:47;29.07;;;7.03;;
29958;SDS011;16815;51.100;6.516;2023-02-04T12:21:13;22.87;;;6.03;;
29958;SDS011;16815;51.100;6.516;2023-02-04T12:23:39;22.60;;;6.60;;
29958;SDS011;16815;51.100;6.516;2023-02-04T12:26:08;15.60;;;5.67;;
29958;SDS011;16815;51.100;6.516;2023-02-04T12:28:34;22.20;;;5.67;;
29958;SDS011;16815;51.100;6.516;2023-02-04T12:31:00;19.27;;;5.33;;
29958;SDS011;16815;51.100;6.516;2023-02-04T12:33:26;20.27;;;6.03;;
29958;SDS011;16815;51.100;6.516;2023-02-04T12:35:52;22.30;;;5.77;;
29958;SDS011;16815;51.100;6.516;2023-02-04T12:38:18;20.23;;;5.67;;
29958;SDS011;16815;51.100;6.516;2023-02-04T12:40:44;17.20;;;5.17;;
29958;SDS011;16815;51.100;6.516;2023-02-04T12:43:10;22.27;;;5.53;;
29958;SDS011;16815;51.100;6.516;2023-02-04T12:45:36;19.43;;;5.03;;
29958;SDS011;16815;51.100;6.516;2023-02-04T12:48:04;18.53;;;5.43;;
29958;SDS011;16815;51.100;6.516;2023-02-04T12:50:30;26.03;;;6.30;;
29958;SDS011;16815;51.100;6.516;2023-02-04T12:52:56;24.17;;;5.93;;
29958;SDS011;16815;51.100;6.516;2023-02-04T12:55:23;23.73;;;5.60;;
29958;SDS011;16815;51.100;6.516;2023-02-04T12:57:50;21.73;;;5.43;;
29958;SDS011;16815;51.100;6.516;2023-02-04T13:00:16;18.10;;;5.60;;
29958;SDS011;16815;51.100;6.516;2023-02-04T13:02:42;19.00;;;5.43;;
29958;SDS011;16815;51.100;6.516;2023-02-04T13:05:08;16.13;;;4.80;;
29958;SDS011;16815;51.100;6.516;2023-02-04T13:07:35;20.67;;;5.87;;
29958;SDS011;16815;51.100;6.516;2023-02-04T13:10:01;18.07;;;5.03;;
29958;SDS011;16815;51.100;6.516;2023-02-04T13:12:27;18.67;;;5.30;;
29958;SDS011;16815;51.100;6.516;2023-02-04T13:14:53;17.07;;;4.97;;
29958;SDS011;16815;51.100;6.516;2023-02-04T13:17:19;16.73;;;5.37;;
29958;SDS011;16815;51.100;6.516;2023-02-04T13:19:45;21.07;;;5.20;;
29958;SDS011;16815;51.100;6.516;2023-02-04T13:22:11;18.50;;;4.63;;
29958;SDS011;16815;51.100;6.516;2023-02-04T13:24:37;18.33;;;4.90;;
29958;SDS011;16815;51.100;6.516;2023-02-04T13:27:03;21.53;;;5.13;;
29958;SDS011;16815;51.100;6.516;2023-02-04T13:29:29;14.67;;;4.90;;
29958;SDS011;16815;51.100;6.516;2023-02-04T13:31:55;23.07;;;5.03;;
29958;SDS011;16815;51.100;6.516;2023-02-04T13:34:21;17.83;;;5.43;;
29958;SDS011;16815;51.100;6.516;2023-02-04T13:36:47;16.27;;;4.80;;
29958;SDS011;16815;51.100;6.516;2023-02-04T13:39:13;17.23;;;5.27;;
29958;SDS011;16815;51.100;6.516;2023-02-04T13:41:39;18.20;;;5.30;;
29958;SDS011;16815;51.100;6.516;2023-02-04T13:44:05;22.50;;;6.07;;
29958;SDS011;16815;51.100;6.516;2023-02-04T13:46:31;14.77;;;4.53;;
29958;SDS011;16815;51.100;6.516;2023-02-04T13:48:57;22.00;;;5.40;;
29958;SDS011;16815;51.100;6.516;2023-02-04T13:51:23;16.07;;;5.07;;
29958;SDS011;16815;51.100;6.516;2023-02-04T13:53:49;18.33;;;4.97;;
29958;SDS011;16815;51.100;6.516;2023-02-04T13:56:15;17.07;;;4.53;;
29958;SDS011;16815;51.100;6.516;2023-02-04T13:58:41;18.07;;;4.57;;
29958;SDS011;16815;51.100;6.516;2023-02-04T14:01:09;17.03;;;4.67;;
29958;SDS011;16815;51.100;6.516;2023-02-04T14:03:35;16.83;;;4.20;;
29958;SDS011;16815;51.100;6.516;2023-02-04T14:06:01;17.43;;;4.13;;
29958;SDS011;16815;51.100;6.516;2023-02-04T14:08:27;17.63;;;4.10;;
29958;SDS011;16815;51.100;6.516;2023-02-04T14:10:53;18.27;;;4.50;;
29958;SDS011;16815;51.100;6.516;2023-02-04T14:13:19;16.83;;;4.43;;
29958;SDS011;16815;51.100;6.516;2023-02-04T14:15:45;12.57;;;4.37;;
29958;SDS011;16815;51.100;6.516;2023-02-04T14:18:11;17.10;;;4.70;;
29958;SDS011;16815;51.100;6.516;2023-02-04T14:20:37;17.47;;;4.13;;
29958;SDS011;16815;51.100;6.516;2023-02-04T14:23:04;17.97;;;4.93;;
29958;SDS011;16815;51.100;6.516;2023-02-04T14:25:30;13.00;;;4.23;;
29958;SDS011;16815;51.100;6.516;2023-02-04T14:27:56;15.10;;;4.00;;
29958;SDS011;16815;51.100;6.516;2023-02-04T14:30:23;13.00;;;4.67;;
29958;SDS011;16815;51.100;6.516;2023-02-04T14:32:50;17.57;;;4.73;;
29958;SDS011;16815;51.100;6.516;2023-02-04T14:35:16;18.47;;;4.67;;
29958;SDS011;16815;51.100;6.516;2023-02-04T14:37:42;13.30;;;4.27;;
29958;SDS011;16815;51.100;6.516;2023-02-04T14:40:09;16.20;;;4.20;;
29958;SDS011;16815;51.100;6.516;2023-02-04T14:42:36;16.80;;;4.60;;
29958;SDS011;16815;51.100;6.516;2023-02-04T14:45:03;15.07;;;4.67;;
29958;SDS011;16815;51.100;6.516;2023-02-04T14:47:29;19.67;;;5.20;;